createdAt,value
2022-08-27T00:00:15.378Z,19.27
2022-08-27T00:02:43.699Z,19.27
2022-08-27T00:05:12.854Z,19.26
2022-08-27T00:07:39.934Z,19.33
2022-08-27T00:10:09.114Z,19.37
2022-08-27T00:12:36.241Z,19.21
2022-08-27T00:15:04.608Z,19.04
2022-08-27T00:17:31.136Z,19.25
2022-08-27T00:19:57.994Z,19.29
2022-08-27T00:22:24.482Z,19.33
2022-08-27T00:24:50.977Z,19.38
2022-08-27T00:27:17.954Z,19.44
2022-08-27T00:29:44.800Z,19.48
2022-08-27T00:32:11.320Z,19.54
2022-08-27T00:34:37.826Z,19.55
2022-08-27T00:37:06.612Z,19.60
2022-08-27T00:39:34.019Z,19.67
2022-08-27T00:42:03.645Z,19.58
2022-08-27T00:44:31.925Z,19.51
2022-08-27T00:47:02.722Z,19.42
2022-08-27T00:49:43.590Z,19.39
2022-08-27T00:52:22.225Z,19.52
2022-08-27T00:54:52.203Z,19.57
2022-08-27T00:57:19.192Z,19.38
2022-08-27T00:59:46.409Z,19.33
2022-08-27T01:02:19.133Z,19.29
2022-08-27T01:04:55.489Z,19.30
2022-08-27T01:07:31.004Z,19.34
2022-08-27T01:10:00.276Z,19.36
2022-08-27T01:12:28.385Z,19.36
2022-08-27T01:14:56.679Z,19.39
2022-08-27T01:17:24.788Z,19.44
2022-08-27T01:19:58.617Z,19.38
2022-08-27T01:22:43.307Z,19.43
2022-08-27T01:25:14.323Z,19.50
2022-08-27T01:27:43.412Z,19.55
2022-08-27T01:30:12.935Z,19.49
2022-08-27T01:32:39.983Z,19.59
2022-08-27T01:35:09.330Z,19.64
2022-08-27T01:37:36.821Z,19.70
2022-08-27T01:40:04.775Z,19.70
2022-08-27T01:42:41.031Z,19.70
2022-08-27T01:45:14.264Z,19.66
2022-08-27T01:47:41.008Z,19.67
2022-08-27T01:50:13.746Z,19.65
2022-08-27T01:52:40.704Z,19.63
2022-08-27T01:55:09.608Z,19.65
2022-08-27T01:57:36.209Z,19.65
2022-08-27T02:00:14.175Z,19.67
2022-08-27T02:02:41.152Z,19.64
2022-08-27T02:05:08.779Z,19.70
2022-08-27T02:07:36.573Z,19.64
2022-08-27T02:10:04.763Z,19.61
2022-08-27T02:12:31.252Z,19.61
2022-08-27T02:14:57.754Z,19.59
2022-08-27T02:17:24.298Z,19.63
2022-08-27T02:19:50.791Z,19.66
2022-08-27T02:22:17.303Z,19.69
2022-08-27T02:24:43.766Z,19.67
2022-08-27T02:27:11.136Z,19.76
2022-08-27T02:29:37.930Z,19.72
2022-08-27T02:32:04.477Z,19.71
2022-08-27T02:34:30.954Z,19.67
2022-08-27T02:36:57.507Z,19.70
2022-08-27T02:39:24.018Z,19.65
2022-08-27T02:41:50.562Z,19.73
2022-08-27T02:44:17.206Z,19.69
2022-08-27T02:46:43.748Z,19.65
2022-08-27T02:49:10.807Z,19.70
2022-08-27T02:51:37.674Z,19.68
2022-08-27T02:54:05.552Z,19.69
2022-08-27T02:56:36.018Z,19.77
2022-08-27T02:59:02.535Z,19.72
2022-08-27T03:01:29.166Z,19.74
2022-08-27T03:03:57.340Z,19.70
2022-08-27T03:06:23.832Z,19.69
2022-08-27T03:08:53.146Z,19.73
2022-08-27T03:11:20.345Z,19.75
2022-08-27T03:13:46.890Z,19.73
2022-08-27T03:16:13.477Z,19.73
2022-08-27T03:18:40.593Z,19.78
2022-08-27T03:21:08.133Z,19.81
2022-08-27T03:23:35.379Z,19.75
2022-08-27T03:26:05.010Z,19.73
2022-08-27T03:28:34.038Z,19.86
2022-08-27T03:31:04.592Z,19.87
2022-08-27T03:33:33.799Z,19.90
2022-08-27T03:36:00.346Z,19.79
2022-08-27T03:38:27.286Z,19.81
2022-08-27T03:40:54.298Z,19.88
2022-08-27T03:43:22.190Z,19.75
2022-08-27T03:46:00.560Z,19.86
2022-08-27T03:48:29.056Z,19.86
2022-08-27T03:50:55.811Z,19.83
2022-08-27T03:53:22.344Z,19.77
2022-08-27T03:55:49.238Z,19.76
2022-08-27T03:58:16.850Z,19.66
2022-08-27T04:00:43.430Z,19.52
2022-08-27T04:03:13.196Z,19.50
2022-08-27T04:05:40.715Z,19.48
2022-08-27T04:08:13.240Z,19.57
2022-08-27T04:10:42.512Z,19.57
2022-08-27T04:13:09.056Z,19.55
2022-08-27T04:15:37.825Z,19.49
2022-08-27T04:18:07.545Z,19.46
2022-08-27T04:20:35.726Z,19.44
2022-08-27T04:23:02.676Z,19.42
2022-08-27T04:25:29.459Z,19.45
2022-08-27T04:27:55.971Z,19.43
2022-08-27T04:30:22.473Z,19.38
2022-08-27T04:32:49.265Z,19.47
2022-08-27T04:35:16.049Z,19.49
2022-08-27T04:37:43.172Z,19.54
2022-08-27T04:40:10.385Z,19.54
2022-08-27T04:42:36.850Z,19.64
2022-08-27T04:45:04.360Z,19.57
2022-08-27T04:47:31.078Z,19.59
2022-08-27T04:49:57.837Z,19.58
2022-08-27T04:52:24.938Z,19.68
2022-08-27T04:54:51.953Z,19.73
2022-08-27T04:57:18.796Z,19.72
2022-08-27T04:59:45.516Z,19.74
2022-08-27T05:02:12.582Z,19.83
2022-08-27T05:04:40.647Z,19.76
2022-08-27T05:07:09.267Z,19.72
2022-08-27T05:09:36.291Z,19.80
2022-08-27T05:12:03.362Z,19.67
2022-08-27T05:14:30.406Z,19.54
2022-08-27T05:16:59.025Z,19.71
2022-08-27T05:19:25.994Z,19.69
2022-08-27T05:21:55.661Z,19.58
2022-08-27T05:24:22.414Z,19.79
2022-08-27T05:26:49.956Z,19.76
2022-08-27T05:29:17.123Z,19.68
2022-08-27T05:31:43.754Z,19.61
2022-08-27T05:34:16.572Z,19.56
2022-08-27T05:36:49.243Z,19.63
2022-08-27T05:39:16.640Z,19.60
2022-08-27T05:41:43.204Z,19.61
2022-08-27T05:44:37.264Z,19.67
2022-08-27T05:46:57.338Z,19.57
2022-08-27T05:49:23.809Z,19.57
2022-08-27T05:51:50.289Z,19.84
2022-08-27T05:54:19.178Z,19.99
2022-08-27T05:56:46.524Z,20.02
2022-08-27T05:59:31.799Z,19.98
2022-08-27T06:02:01.453Z,19.93
2022-08-27T06:04:28.105Z,19.86
2022-08-27T06:06:54.688Z,19.74
2022-08-27T06:09:25.448Z,19.77
2022-08-27T06:11:56.402Z,19.78
2022-08-27T06:14:23.247Z,19.73
2022-08-27T06:16:50.011Z,19.78
2022-08-27T06:19:16.728Z,19.80
2022-08-27T06:21:43.814Z,19.78
2022-08-27T06:24:14.875Z,19.75
2022-08-27T06:26:44.475Z,19.78
2022-08-27T06:29:12.825Z,19.75
2022-08-27T06:31:40.396Z,19.82
2022-08-27T06:34:09.970Z,19.79
2022-08-27T06:36:39.429Z,19.79
2022-08-27T06:39:07.348Z,19.75
2022-08-27T06:41:35.105Z,19.76
2022-08-27T06:44:01.586Z,19.77
2022-08-27T06:46:29.444Z,19.78
2022-08-27T06:48:58.883Z,19.77
2022-08-27T06:51:31.422Z,19.68
2022-08-27T06:54:01.090Z,19.68
2022-08-27T06:56:28.581Z,19.72
2022-08-27T06:58:57.361Z,19.69
2022-08-27T07:01:36.613Z,19.73
2022-08-27T07:04:07.128Z,19.77
2022-08-27T07:06:35.885Z,19.73
2022-08-27T07:09:02.725Z,19.86
2022-08-27T07:11:31.941Z,19.88
2022-08-27T07:13:59.081Z,19.80
2022-08-27T07:16:27.217Z,19.80
2022-08-27T07:18:56.808Z,19.79
2022-08-27T07:21:28.524Z,19.77
2022-08-27T07:23:58.889Z,19.77
2022-08-27T07:26:26.636Z,19.78
2022-08-27T07:28:53.503Z,19.76
2022-08-27T07:31:22.792Z,19.74
2022-08-27T07:33:52.548Z,19.73
2022-08-27T07:36:22.952Z,19.75
2022-08-27T07:39:00.866Z,19.77
2022-08-27T07:41:31.330Z,19.73
2022-08-27T07:44:18.737Z,19.88
2022-08-27T07:46:48.773Z,19.75
2022-08-27T07:49:17.210Z,19.97
2022-08-27T07:51:43.733Z,19.95
2022-08-27T07:54:10.716Z,19.93
2022-08-27T07:56:37.184Z,19.95
2022-08-27T07:59:03.911Z,20.00
2022-08-27T08:01:30.447Z,20.13
2022-08-27T08:03:57.095Z,20.07
2022-08-27T08:06:23.634Z,20.17
2022-08-27T08:08:50.227Z,20.27
2022-08-27T08:11:18.273Z,20.33
2022-08-27T08:13:46.117Z,20.26
2022-08-27T08:16:13.843Z,20.25
2022-08-27T08:18:40.892Z,20.34
2022-08-27T08:21:11.236Z,20.26
2022-08-27T08:23:38.369Z,20.34
2022-08-27T08:26:05.658Z,20.51
2022-08-27T08:28:32.877Z,20.58
2022-08-27T08:31:00.091Z,20.59
2022-08-27T08:33:27.830Z,20.64
2022-08-27T08:35:54.738Z,20.70
2022-08-27T08:38:21.841Z,20.69
2022-08-27T08:40:54.518Z,20.61
2022-08-27T08:43:33.107Z,20.53
2022-08-27T08:46:09.795Z,20.61
2022-08-27T08:48:40.521Z,20.64
2022-08-27T08:51:21.610Z,20.74
2022-08-27T08:54:04.624Z,20.58
2022-08-27T08:56:37.006Z,20.49
2022-08-27T08:59:05.942Z,20.45
2022-08-27T09:01:32.467Z,20.58
2022-08-27T09:04:05.176Z,20.50
2022-08-27T09:06:53.062Z,20.28
2022-08-27T09:09:28.006Z,20.46
2022-08-27T09:12:19.118Z,20.46
2022-08-27T09:15:04.111Z,20.55
2022-08-27T09:17:32.522Z,20.62
2022-08-27T09:19:59.419Z,20.68
2022-08-27T09:22:50.167Z,20.68
2022-08-27T09:25:26.642Z,20.78
2022-08-27T09:27:56.673Z,20.90
2022-08-27T09:30:30.513Z,20.91
2022-08-27T09:33:01.121Z,21.00
2022-08-27T09:35:44.726Z,21.16
2022-08-27T09:38:14.068Z,21.29
2022-08-27T09:40:49.115Z,21.50
2022-08-27T09:43:15.584Z,21.71
2022-08-27T09:45:49.552Z,21.91
2022-08-27T09:48:31.080Z,21.95
2022-08-27T09:51:02.399Z,21.55
2022-08-27T09:53:51.643Z,21.74
2022-08-27T09:56:38.013Z,21.56
2022-08-27T09:59:10.761Z,21.74
2022-08-27T10:01:53.873Z,21.78
2022-08-27T10:04:51.342Z,21.69
2022-08-27T10:07:37.179Z,21.88
2022-08-27T10:10:13.122Z,22.38
2022-08-27T10:13:19.784Z,22.46
2022-08-27T10:16:06.850Z,22.61
2022-08-27T10:18:54.633Z,22.58
2022-08-27T10:21:27.235Z,22.55
2022-08-27T10:24:13.213Z,22.44
2022-08-27T10:26:54.887Z,22.22
2022-08-27T10:29:55.134Z,22.51
2022-08-27T10:32:31.196Z,22.55
2022-08-27T10:35:18.110Z,22.58
2022-08-27T10:38:05.981Z,22.18
2022-08-27T10:40:38.609Z,22.08
2022-08-27T10:43:37.316Z,22.24
2022-08-27T10:46:10.916Z,22.17
2022-08-27T10:48:42.706Z,22.33
2022-08-27T10:51:33.735Z,22.23
2022-08-27T10:54:07.511Z,22.16
2022-08-27T10:57:03.651Z,22.24
2022-08-27T10:59:45.117Z,22.24
2022-08-27T11:02:20.599Z,22.22
2022-08-27T11:04:52.851Z,22.21
2022-08-27T11:07:27.038Z,22.30
2022-08-27T11:10:02.039Z,22.25
2022-08-27T11:12:36.358Z,22.23
2022-08-27T11:15:12.745Z,22.23
2022-08-27T11:17:42.511Z,22.42
2022-08-27T11:20:27.147Z,22.49
2022-08-27T11:23:12.111Z,22.44
2022-08-27T11:26:02.408Z,22.50
2022-08-27T11:28:41.907Z,22.18
2022-08-27T11:31:31.513Z,22.03
2022-08-27T11:34:07.902Z,22.03
2022-08-27T11:37:12.699Z,21.75
2022-08-27T11:39:52.064Z,21.78
2022-08-27T11:42:37.076Z,21.83
2022-08-27T11:45:08.663Z,21.71
2022-08-27T11:47:35.571Z,21.76
2022-08-27T11:50:16.021Z,21.76
2022-08-27T11:52:59.426Z,21.93
2022-08-27T11:55:31.939Z,22.01
2022-08-27T11:58:27.556Z,22.13
2022-08-27T12:00:54.445Z,22.22
2022-08-27T12:03:31.475Z,22.33
2022-08-27T12:05:58.905Z,22.27
2022-08-27T12:08:31.555Z,21.92
2022-08-27T12:11:19.734Z,22.06
2022-08-27T12:14:12.307Z,22.29
2022-08-27T12:16:46.139Z,22.19
2022-08-27T12:19:23.395Z,22.25
2022-08-27T12:22:05.085Z,22.21
2022-08-27T12:24:34.246Z,22.18
2022-08-27T12:27:15.516Z,22.04
2022-08-27T12:29:57.164Z,23.06
2022-08-27T12:32:28.685Z,23.30
2022-08-27T12:35:21.415Z,23.65
2022-08-27T12:38:03.876Z,23.57
2022-08-27T12:40:46.508Z,23.40
2022-08-27T12:43:17.970Z,23.24
2022-08-27T12:45:49.605Z,23.14
2022-08-27T12:48:23.973Z,23.35
2022-08-27T12:50:53.461Z,23.34
2022-08-27T12:53:43.610Z,23.46
2022-08-27T12:56:45.359Z,23.22
2022-08-27T12:59:17.634Z,23.10
2022-08-27T13:02:10.084Z,22.64
2022-08-27T13:04:41.008Z,22.58
2022-08-27T13:07:07.616Z,22.16
2022-08-27T13:09:37.456Z,22.05
2022-08-27T13:12:14.606Z,22.19
2022-08-27T13:14:41.385Z,22.28
2022-08-27T13:17:17.750Z,22.36
2022-08-27T13:19:51.188Z,22.50
2022-08-27T13:22:31.814Z,22.35
2022-08-27T13:25:02.383Z,22.69
2022-08-27T13:27:32.604Z,22.73
2022-08-27T13:30:07.450Z,22.59
2022-08-27T13:32:34.615Z,22.72
2022-08-27T13:35:01.900Z,22.76
2022-08-27T13:37:34.740Z,22.71
2022-08-27T13:40:01.380Z,23.07
2022-08-27T13:42:28.442Z,23.24
2022-08-27T13:45:02.835Z,23.21
2022-08-27T13:47:30.711Z,23.22
2022-08-27T13:50:07.655Z,22.81
2022-08-27T13:52:36.246Z,23.01
2022-08-27T13:55:09.859Z,23.17
2022-08-27T13:57:48.937Z,23.24
2022-08-27T14:00:20.566Z,23.41
2022-08-27T14:02:54.115Z,23.00
2022-08-27T14:05:25.434Z,23.19
2022-08-27T14:08:01.906Z,23.31
2022-08-27T14:10:41.359Z,23.62
2022-08-27T14:13:11.413Z,23.28
2022-08-27T14:15:42.949Z,23.39
2022-08-27T14:18:47.966Z,23.29
2022-08-27T14:21:15.227Z,23.32
2022-08-27T14:23:41.701Z,23.24
2022-08-27T14:26:08.521Z,23.30
2022-08-27T14:28:35.541Z,23.38
2022-08-27T14:31:02.136Z,23.37
2022-08-27T14:33:28.883Z,23.13
2022-08-27T14:35:55.478Z,23.07
2022-08-27T14:38:23.789Z,22.93
2022-08-27T14:40:53.640Z,22.87
2022-08-27T14:43:23.048Z,22.54
2022-08-27T14:45:51.728Z,22.38
2022-08-27T14:48:25.942Z,22.24
2022-08-27T14:50:55.392Z,21.93
2022-08-27T14:53:22.008Z,22.07
2022-08-27T14:55:51.654Z,22.14
2022-08-27T14:58:19.080Z,22.21
2022-08-27T15:00:45.682Z,22.24
2022-08-27T15:03:12.993Z,22.15
2022-08-27T15:05:39.554Z,22.10
2022-08-27T15:08:07.539Z,22.13
2022-08-27T15:10:36.065Z,22.13
2022-08-27T15:13:02.576Z,22.08
2022-08-27T15:15:29.091Z,22.08
2022-08-27T15:17:55.589Z,22.14
2022-08-27T15:20:22.132Z,22.14
2022-08-27T15:22:52.044Z,22.08
2022-08-27T15:25:19.808Z,21.96
2022-08-27T15:27:46.304Z,22.13
2022-08-27T15:30:15.495Z,22.00
2022-08-27T15:32:47.914Z,22.00
2022-08-27T15:35:18.706Z,21.92
2022-08-27T15:37:45.770Z,21.94
2022-08-27T15:40:14.556Z,22.08
2022-08-27T15:42:41.346Z,22.02
2022-08-27T15:45:08.895Z,21.92
2022-08-27T15:47:35.474Z,22.03
2022-08-27T15:50:01.966Z,21.98
2022-08-27T15:52:36.338Z,21.85
2022-08-27T15:55:15.498Z,21.99
2022-08-27T15:57:41.983Z,22.04
2022-08-27T16:00:09.167Z,21.94
2022-08-27T16:02:35.933Z,22.06
2022-08-27T16:05:02.641Z,22.03
2022-08-27T16:07:29.224Z,22.17
2022-08-27T16:09:55.766Z,21.91
2022-08-27T16:12:27.107Z,22.03
2022-08-27T16:14:55.094Z,21.87
2022-08-27T16:17:21.930Z,21.87
2022-08-27T16:19:49.351Z,21.94
2022-08-27T16:22:16.305Z,22.00
2022-08-27T16:24:43.336Z,21.75
2022-08-27T16:27:10.213Z,21.56
2022-08-27T16:29:37.031Z,21.50
2022-08-27T16:32:04.277Z,21.33
2022-08-27T16:34:31.033Z,21.50
2022-08-27T16:36:57.631Z,21.59
2022-08-27T16:39:24.104Z,21.62
2022-08-27T16:41:50.636Z,21.53
2022-08-27T16:44:17.632Z,21.49
2022-08-27T16:46:44.253Z,21.45
2022-08-27T16:49:29.107Z,21.48
2022-08-27T16:51:55.744Z,21.39
2022-08-27T16:54:22.477Z,21.23
2022-08-27T16:56:49.686Z,21.07
2022-08-27T16:59:16.703Z,20.94
2022-08-27T17:01:43.522Z,21.03
2022-08-27T17:04:21.354Z,21.02
2022-08-27T17:06:51.683Z,20.98
2022-08-27T17:09:19.085Z,20.72
2022-08-27T17:11:50.478Z,20.86
2022-08-27T17:14:16.954Z,21.12
2022-08-27T17:16:43.906Z,20.91
2022-08-27T17:19:16.759Z,20.74
2022-08-27T17:21:45.249Z,20.73
2022-08-27T17:24:12.479Z,20.79
2022-08-27T17:26:39.300Z,20.77
2022-08-27T17:29:05.943Z,20.89
2022-08-27T17:31:36.860Z,20.73
2022-08-27T17:34:05.717Z,20.85
2022-08-27T17:36:33.339Z,20.95
2022-08-27T17:39:00.195Z,20.85
2022-08-27T17:41:33.650Z,20.76
2022-08-27T17:44:15.999Z,20.80
2022-08-27T17:46:42.372Z,20.71
2022-08-27T17:49:09.472Z,20.74
2022-08-27T17:51:36.041Z,20.80
2022-08-27T17:54:03.321Z,20.81
2022-08-27T17:56:29.986Z,20.68
2022-08-27T17:58:56.772Z,20.71
2022-08-27T18:01:31.585Z,20.54
2022-08-27T18:03:58.727Z,20.55
2022-08-27T18:06:27.875Z,20.65
2022-08-27T18:08:54.584Z,20.62
2022-08-27T18:11:21.379Z,20.53
2022-08-27T18:13:54.031Z,20.61
2022-08-27T18:16:21.800Z,20.68
2022-08-27T18:18:48.528Z,20.57
2022-08-27T18:21:24.935Z,20.68
2022-08-27T18:23:52.765Z,20.61
2022-08-27T18:26:21.498Z,20.63
2022-08-27T18:28:48.999Z,20.49
2022-08-27T18:31:18.408Z,20.51
2022-08-27T18:33:45.139Z,20.56
2022-08-27T18:36:11.892Z,20.43
2022-08-27T18:38:38.423Z,20.46
2022-08-27T18:41:06.238Z,20.34
2022-08-27T18:43:35.221Z,20.42
2022-08-27T18:46:03.418Z,20.33
2022-08-27T18:48:30.105Z,20.31
2022-08-27T18:50:59.302Z,20.24
2022-08-27T18:53:28.843Z,20.17
2022-08-27T18:55:55.554Z,20.25
2022-08-27T18:58:22.448Z,20.28
2022-08-27T19:00:53.430Z,20.08
2022-08-27T19:03:25.197Z,20.25
2022-08-27T19:05:55.047Z,20.19
2022-08-27T19:08:23.992Z,20.21
2022-08-27T19:10:50.965Z,20.27
2022-08-27T19:13:17.830Z,20.27
2022-08-27T19:15:50.896Z,20.19
2022-08-27T19:18:18.557Z,20.19
2022-08-27T19:20:45.083Z,20.13
2022-08-27T19:23:11.726Z,20.19
2022-08-27T19:25:38.406Z,20.24
2022-08-27T19:28:05.006Z,19.99
2022-08-27T19:30:32.808Z,20.17
2022-08-27T19:32:59.343Z,20.25
2022-08-27T19:35:25.872Z,20.36
2022-08-27T19:37:53.471Z,20.32
2022-08-27T19:40:21.994Z,20.14
2022-08-27T19:42:49.454Z,20.08
2022-08-27T19:45:16.263Z,20.06
2022-08-27T19:47:50.348Z,20.06
2022-08-27T19:50:17.471Z,20.09
2022-08-27T19:52:44.168Z,20.11
2022-08-27T19:55:13.917Z,20.07
2022-08-27T19:57:41.535Z,20.06
2022-08-27T20:00:09.597Z,20.01
2022-08-27T20:02:36.200Z,19.99
2022-08-27T20:05:17.382Z,20.06
2022-08-27T20:07:45.919Z,20.11
2022-08-27T20:10:12.510Z,20.11
2022-08-27T20:12:39.059Z,20.02
2022-08-27T20:15:06.772Z,20.02
2022-08-27T20:17:34.979Z,20.03
2022-08-27T20:20:01.810Z,19.91
2022-08-27T20:22:28.296Z,19.93
2022-08-27T20:24:54.872Z,20.02
2022-08-27T20:27:21.468Z,20.00
2022-08-27T20:29:48.641Z,20.03
2022-08-27T20:32:15.301Z,19.83
2022-08-27T20:34:42.017Z,19.88
2022-08-27T20:37:08.687Z,20.00
2022-08-27T20:39:35.382Z,20.07
2022-08-27T20:42:01.961Z,20.01
2022-08-27T20:44:29.175Z,20.03
2022-08-27T20:46:59.762Z,20.03
2022-08-27T20:49:27.911Z,19.83
2022-08-27T20:52:03.236Z,20.00
2022-08-27T20:54:31.554Z,20.00
2022-08-27T20:56:58.605Z,19.93
2022-08-27T20:59:43.926Z,19.93
2022-08-27T21:02:14.113Z,19.96
2022-08-27T21:04:46.447Z,19.92
2022-08-27T21:07:14.131Z,19.89
2022-08-27T21:09:56.431Z,19.94
2022-08-27T21:12:28.420Z,19.91
2022-08-27T21:14:55.851Z,19.94
2022-08-27T21:17:29.497Z,19.95
2022-08-27T21:19:56.478Z,19.86
2022-08-27T21:22:23.812Z,19.84
2022-08-27T21:24:50.351Z,19.70
2022-08-27T21:27:18.338Z,19.80
2022-08-27T21:29:45.204Z,19.72
2022-08-27T21:32:12.604Z,19.80
2022-08-27T21:34:39.677Z,19.77
2022-08-27T21:37:06.162Z,19.82
2022-08-27T21:39:34.167Z,19.90
2022-08-27T21:42:01.680Z,19.87
2022-08-27T21:44:30.409Z,19.90
2022-08-27T21:46:57.771Z,19.90
2022-08-27T21:49:24.306Z,19.86
2022-08-27T21:51:50.881Z,19.86
2022-08-27T21:54:17.550Z,19.85
2022-08-27T21:56:44.540Z,19.77
2022-08-27T21:59:11.121Z,19.79
2022-08-27T22:01:37.718Z,19.81
2022-08-27T22:04:04.221Z,19.77
2022-08-27T22:06:30.733Z,19.73
2022-08-27T22:08:57.228Z,19.61
2022-08-27T22:11:24.542Z,19.63
2022-08-27T22:13:51.952Z,19.61
2022-08-27T22:16:19.298Z,19.53
2022-08-27T22:18:45.825Z,19.48
2022-08-27T22:21:12.492Z,19.45
2022-08-27T22:23:39.004Z,19.53
2022-08-27T22:26:09.696Z,19.50
2022-08-27T22:28:36.202Z,19.41
2022-08-27T22:31:02.744Z,19.42
2022-08-27T22:33:29.290Z,19.46
2022-08-27T22:35:55.867Z,19.39
2022-08-27T22:38:22.358Z,19.47
2022-08-27T22:40:50.124Z,19.48
2022-08-27T22:43:17.016Z,19.45
2022-08-27T22:45:43.495Z,19.46
2022-08-27T22:48:10.171Z,19.40
2022-08-27T22:50:36.764Z,19.37
2022-08-27T22:53:03.426Z,19.42
2022-08-27T22:55:29.954Z,19.38
2022-08-27T22:57:56.532Z,19.38
2022-08-27T23:00:26.990Z,19.39
2022-08-27T23:02:54.089Z,19.36
2022-08-27T23:05:21.455Z,19.34
2022-08-27T23:07:48.378Z,19.33
2022-08-27T23:10:18.315Z,19.29
2022-08-27T23:12:46.510Z,19.26
2022-08-27T23:15:15.611Z,19.24
2022-08-27T23:17:42.144Z,19.22
2022-08-27T23:20:10.917Z,19.18
2022-08-27T23:22:38.787Z,19.17
2022-08-27T23:25:26.185Z,19.13
2022-08-27T23:27:53.681Z,19.13
2022-08-27T23:30:21.466Z,19.11
2022-08-27T23:32:53.762Z,18.99
2022-08-27T23:35:22.544Z,19.06
2022-08-27T23:37:50.026Z,19.03
2022-08-27T23:40:17.800Z,19.05
2022-08-27T23:42:45.261Z,19.01
2022-08-27T23:45:15.210Z,18.93
2022-08-27T23:47:41.681Z,18.96
2022-08-27T23:50:09.545Z,18.89
2022-08-27T23:52:37.212Z,18.90
2022-08-27T23:55:05.154Z,18.79
2022-08-27T23:57:31.658Z,18.84
2022-08-27T23:59:58.152Z,18.80
